createdAt,value
2017-10-09T00:00:55.346Z,0
2017-10-09T00:01:56.070Z,0
2017-10-09T00:02:56.848Z,0
2017-10-09T00:03:57.580Z,0
2017-10-09T00:04:58.357Z,0
2017-10-09T00:05:59.084Z,0
2017-10-09T00:06:59.806Z,0
2017-10-09T00:08:00.535Z,0
2017-10-09T00:09:01.269Z,0
2017-10-09T00:10:02.097Z,0
2017-10-09T00:11:02.833Z,0
2017-10-09T00:12:03.561Z,0
2017-10-09T00:13:04.337Z,0
2017-10-09T00:14:05.140Z,0
2017-10-09T00:15:05.905Z,0
2017-10-09T00:16:06.638Z,0
2017-10-09T00:17:07.373Z,0
2017-10-09T00:18:08.150Z,0
2017-10-09T00:19:08.871Z,0
2017-10-09T00:20:09.993Z,0
2017-10-09T00:21:10.772Z,0
2017-10-09T00:22:11.490Z,0
2017-10-09T00:23:12.292Z,0
2017-10-09T00:24:13.010Z,0
2017-10-09T00:25:14.036Z,0
2017-10-09T00:26:14.823Z,0
2017-10-09T00:27:15.622Z,0
2017-10-09T00:28:16.353Z,0
2017-10-09T00:29:17.079Z,0
2017-10-09T00:30:18.239Z,0
2017-10-09T00:31:19.036Z,0
2017-10-09T00:32:19.801Z,0
2017-10-09T00:33:20.547Z,0
2017-10-09T00:34:21.256Z,0
2017-10-09T00:35:22.382Z,0
2017-10-09T00:36:23.116Z,0
2017-10-09T00:37:23.893Z,0
2017-10-09T00:38:24.614Z,0
2017-10-09T00:39:25.389Z,0
2017-10-09T00:40:26.471Z,0
2017-10-09T00:41:27.192Z,0
2017-10-09T00:42:27.917Z,0
2017-10-09T00:43:28.650Z,0
2017-10-09T00:44:29.375Z,0
2017-10-09T00:45:30.115Z,0
2017-10-09T00:46:30.936Z,0
2017-10-09T00:47:31.658Z,0
2017-10-09T00:48:32.387Z,0
2017-10-09T00:49:33.099Z,0
2017-10-09T00:50:33.830Z,0
2017-10-09T00:51:34.959Z,0
2017-10-09T00:52:35.678Z,0
2017-10-09T00:53:36.414Z,0
2017-10-09T00:54:37.111Z,0
2017-10-09T00:55:37.841Z,0
2017-10-09T00:56:39.269Z,0
2017-10-09T00:57:40.069Z,0
2017-10-09T00:58:40.793Z,0
2017-10-09T00:59:41.561Z,0
2017-10-09T01:00:42.289Z,0
2017-10-09T01:01:43.461Z,0
2017-10-09T01:02:44.177Z,0
2017-10-09T01:03:44.911Z,0
2017-10-09T01:04:45.626Z,0
2017-10-09T01:05:46.351Z,0
2017-10-09T01:06:47.380Z,0
2017-10-09T01:07:48.107Z,0
2017-10-09T01:08:48.850Z,0
2017-10-09T01:09:49.667Z,0
2017-10-09T01:10:50.371Z,0
2017-10-09T01:11:51.086Z,0
2017-10-09T01:12:52.056Z,0
2017-10-09T01:13:52.777Z,0
2017-10-09T01:14:53.517Z,0
2017-10-09T01:15:54.312Z,0
2017-10-09T01:16:55.027Z,0
2017-10-09T01:17:56.106Z,0
2017-10-09T01:18:56.827Z,0
2017-10-09T01:19:57.558Z,0
2017-10-09T01:20:58.338Z,0
2017-10-09T01:21:59.120Z,0
2017-10-09T01:23:00.176Z,0
2017-10-09T01:24:00.897Z,0
2017-10-09T01:25:01.617Z,0
2017-10-09T01:26:02.349Z,0
2017-10-09T01:27:03.151Z,0
2017-10-09T01:28:04.275Z,0
2017-10-09T01:29:04.998Z,0
2017-10-09T01:30:05.728Z,0
2017-10-09T01:31:06.474Z,0
2017-10-09T01:32:07.216Z,0
2017-10-09T01:33:08.241Z,0
2017-10-09T01:34:08.955Z,0
2017-10-09T01:35:09.684Z,0
2017-10-09T01:36:10.427Z,0
2017-10-09T01:37:11.160Z,0
2017-10-09T01:38:12.264Z,0
2017-10-09T01:39:13.036Z,0
2017-10-09T01:40:13.841Z,0
2017-10-09T01:41:14.589Z,0
2017-10-09T01:42:15.312Z,0
2017-10-09T01:43:16.388Z,0
2017-10-09T01:44:17.110Z,0
2017-10-09T01:45:17.842Z,0
2017-10-09T01:46:18.638Z,0
2017-10-09T01:47:19.371Z,0
2017-10-09T01:48:20.403Z,0
2017-10-09T01:49:21.174Z,0
2017-10-09T01:50:21.896Z,0
2017-10-09T01:51:22.616Z,0
2017-10-09T01:52:23.351Z,0
2017-10-09T01:53:24.461Z,0
2017-10-09T01:54:25.245Z,0
2017-10-09T01:55:25.981Z,0
2017-10-09T01:56:26.759Z,0
2017-10-09T01:57:27.490Z,0
2017-10-09T01:58:28.915Z,0
2017-10-09T01:59:29.645Z,0
2017-10-09T02:00:30.423Z,0
2017-10-09T02:01:31.217Z,0
2017-10-09T02:02:32.002Z,0
2017-10-09T02:03:33.199Z,0
2017-10-09T02:04:33.920Z,0
2017-10-09T02:05:34.638Z,0
2017-10-09T02:06:35.427Z,0
2017-10-09T02:07:36.148Z,0
2017-10-09T02:08:37.206Z,0
2017-10-09T02:09:38.016Z,0
2017-10-09T02:10:38.782Z,0
2017-10-09T02:11:39.509Z,0
2017-10-09T02:12:40.239Z,0
2017-10-09T02:13:41.019Z,0
2017-10-09T02:14:41.740Z,0
2017-10-09T02:15:42.460Z,0
2017-10-09T02:16:43.269Z,0
2017-10-09T02:17:43.993Z,0
2017-10-09T02:18:45.129Z,0
2017-10-09T02:19:45.865Z,0
2017-10-09T02:20:46.628Z,0
2017-10-09T02:21:47.348Z,0
2017-10-09T02:22:48.117Z,0
2017-10-09T02:23:48.858Z,0
2017-10-09T02:24:49.648Z,0
2017-10-09T02:25:50.378Z,0
2017-10-09T02:26:51.109Z,0
2017-10-09T02:27:51.839Z,0
2017-10-09T02:28:52.933Z,0
2017-10-09T02:29:53.732Z,0
2017-10-09T02:30:54.462Z,0
2017-10-09T02:31:55.239Z,0
2017-10-09T02:32:55.979Z,0
2017-10-09T02:33:56.785Z,0
2017-10-09T02:34:57.558Z,0
2017-10-09T02:35:58.288Z,0
2017-10-09T02:36:59.070Z,0
2017-10-09T02:37:59.860Z,0
2017-10-09T02:39:00.958Z,0
2017-10-09T02:40:01.683Z,0
2017-10-09T02:41:02.480Z,0
2017-10-09T02:42:03.203Z,0
2017-10-09T02:43:03.998Z,0
2017-10-09T02:44:05.022Z,0
2017-10-09T02:45:05.737Z,0
2017-10-09T02:46:06.461Z,0
2017-10-09T02:47:07.182Z,0
2017-10-09T02:48:07.960Z,0
2017-10-09T02:49:09.097Z,0
2017-10-09T02:50:09.822Z,0
2017-10-09T02:51:10.630Z,0
2017-10-09T02:52:11.438Z,0
2017-10-09T02:53:12.222Z,0
2017-10-09T02:54:13.056Z,0
2017-10-09T02:55:13.774Z,0
2017-10-09T02:56:14.535Z,0
2017-10-09T02:57:15.273Z,0
2017-10-09T02:58:16.062Z,0
2017-10-09T02:59:17.188Z,0
2017-10-09T03:00:17.911Z,0
2017-10-09T03:01:18.630Z,0
2017-10-09T03:02:19.347Z,0
2017-10-09T03:03:20.068Z,0
2017-10-09T03:04:20.896Z,0
2017-10-09T03:05:21.662Z,0
2017-10-09T03:06:22.398Z,0
2017-10-09T03:07:23.150Z,0
2017-10-09T03:08:23.948Z,0
2017-10-09T03:09:24.978Z,0
2017-10-09T03:10:25.698Z,0
2017-10-09T03:11:26.419Z,0
2017-10-09T03:12:27.142Z,0
2017-10-09T03:13:27.868Z,0
2017-10-09T03:14:29.067Z,0
2017-10-09T03:15:29.797Z,0
2017-10-09T03:16:30.538Z,0
2017-10-09T03:17:31.316Z,0
2017-10-09T03:18:32.043Z,0
2017-10-09T03:19:32.942Z,0
2017-10-09T03:20:33.733Z,0
2017-10-09T03:21:34.468Z,0
2017-10-09T03:22:35.202Z,0
2017-10-09T03:23:35.937Z,0
2017-10-09T03:24:36.958Z,0
2017-10-09T03:25:37.776Z,0
2017-10-09T03:26:38.511Z,0
2017-10-09T03:27:39.311Z,0
2017-10-09T03:28:40.067Z,0
2017-10-09T03:29:41.088Z,0
2017-10-09T03:30:41.824Z,0
2017-10-09T03:31:42.547Z,0
2017-10-09T03:32:43.274Z,0
2017-10-09T03:33:43.989Z,0
2017-10-09T03:34:44.778Z,0
2017-10-09T03:35:45.519Z,0
2017-10-09T03:36:46.315Z,0
2017-10-09T03:37:47.151Z,0
2017-10-09T03:38:47.972Z,0
2017-10-09T03:39:48.760Z,0
2017-10-09T03:40:49.557Z,0
2017-10-09T03:41:50.301Z,0
2017-10-09T03:42:51.066Z,0
2017-10-09T03:43:52.097Z,0
2017-10-09T03:44:52.826Z,0
2017-10-09T03:45:53.554Z,0
2017-10-09T03:46:54.340Z,0
2017-10-09T03:47:55.141Z,0
2017-10-09T03:48:56.266Z,0
2017-10-09T03:49:57.069Z,0
2017-10-09T03:50:57.868Z,0
2017-10-09T03:51:58.591Z,0
2017-10-09T03:52:59.361Z,0
2017-10-09T03:54:00.132Z,0
2017-10-09T03:55:01.310Z,0
2017-10-09T03:56:02.039Z,0
2017-10-09T03:57:02.763Z,0
2017-10-09T03:58:03.491Z,0
2017-10-09T03:59:04.295Z,0
2017-10-09T04:00:05.151Z,0
2017-10-09T04:01:05.941Z,0
2017-10-09T04:02:06.745Z,0
2017-10-09T04:03:07.531Z,0
2017-10-09T04:04:08.267Z,0
2017-10-09T04:05:09.009Z,0
2017-10-09T04:06:09.739Z,0
2017-10-09T04:07:10.880Z,0
2017-10-09T04:08:11.645Z,0
2017-10-09T04:09:12.426Z,0
2017-10-09T04:10:13.149Z,0
2017-10-09T04:11:13.883Z,0
2017-10-09T04:12:14.670Z,0
2017-10-09T04:13:15.890Z,0
2017-10-09T04:14:16.613Z,0
2017-10-09T04:15:17.342Z,0
2017-10-09T04:16:18.064Z,0
2017-10-09T04:17:18.799Z,0
2017-10-09T04:18:19.631Z,0
2017-10-09T04:19:20.430Z,0
2017-10-09T04:20:21.168Z,0
2017-10-09T04:21:21.931Z,0
2017-10-09T04:22:22.731Z,0
2017-10-09T04:23:23.802Z,0
2017-10-09T04:24:24.511Z,0
2017-10-09T04:25:25.244Z,0
2017-10-09T04:26:26.036Z,0
2017-10-09T04:27:26.760Z,0
2017-10-09T04:28:27.550Z,0
2017-10-09T04:29:28.282Z,0
2017-10-09T04:30:29.084Z,0
2017-10-09T04:31:29.865Z,0
2017-10-09T04:32:30.650Z,0
2017-10-09T04:33:31.780Z,0
2017-10-09T04:34:32.501Z,0
2017-10-09T04:35:33.240Z,0
2017-10-09T04:36:33.943Z,0
2017-10-09T04:37:34.670Z,0
2017-10-09T04:38:35.809Z,0
2017-10-09T04:39:36.516Z,0
2017-10-09T04:40:37.242Z,0
2017-10-09T04:41:37.975Z,0
2017-10-09T04:42:38.760Z,0
2017-10-09T04:43:39.841Z,0
2017-10-09T04:44:40.570Z,0
2017-10-09T04:45:41.302Z,0
2017-10-09T04:46:42.039Z,0
2017-10-09T04:47:42.845Z,0
2017-10-09T04:48:43.863Z,0
2017-10-09T04:49:44.673Z,0
2017-10-09T04:50:45.473Z,0
2017-10-09T04:51:46.242Z,0
2017-10-09T04:52:46.972Z,0
2017-10-09T04:53:48.162Z,0
2017-10-09T04:54:48.903Z,0
2017-10-09T04:55:49.699Z,0
2017-10-09T04:56:50.423Z,0
2017-10-09T04:57:51.229Z,0
2017-10-09T04:58:52.058Z,0
2017-10-09T04:59:52.825Z,0
2017-10-09T05:00:53.620Z,0
2017-10-09T05:01:54.363Z,0
2017-10-09T05:02:55.171Z,0
2017-10-09T05:03:56.201Z,0
2017-10-09T05:04:56.928Z,0
2017-10-09T05:05:57.663Z,0
2017-10-09T05:06:58.400Z,0
2017-10-09T05:07:59.132Z,0
2017-10-09T05:09:00.253Z,0
2017-10-09T05:10:00.981Z,0
2017-10-09T05:11:01.707Z,0
2017-10-09T05:12:02.445Z,0
2017-10-09T05:13:03.166Z,0
2017-10-09T05:14:04.290Z,0
2017-10-09T05:15:05.010Z,0
2017-10-09T05:16:05.742Z,0
2017-10-09T05:17:06.476Z,0
2017-10-09T05:18:07.254Z,0
2017-10-09T05:19:08.763Z,0
2017-10-09T05:20:09.501Z,0
2017-10-09T05:21:10.285Z,0
2017-10-09T05:22:11.062Z,0
2017-10-09T05:23:11.794Z,0
2017-10-09T05:24:13.004Z,0
2017-10-09T05:25:13.796Z,0
2017-10-09T05:26:14.540Z,5
2017-10-09T05:27:15.312Z,5
2017-10-09T05:28:16.049Z,5
2017-10-09T05:29:17.133Z,5
2017-10-09T05:30:17.912Z,5
2017-10-09T05:31:18.744Z,5
2017-10-09T05:32:19.471Z,5
2017-10-09T05:33:20.206Z,5
2017-10-09T05:34:21.346Z,5
2017-10-09T05:35:22.123Z,11
2017-10-09T05:36:22.855Z,11
2017-10-09T05:37:23.592Z,11
2017-10-09T05:38:24.323Z,11
2017-10-09T05:39:25.467Z,11
2017-10-09T05:40:26.192Z,11
2017-10-09T05:41:26.982Z,16
2017-10-09T05:42:27.715Z,16
2017-10-09T05:43:28.442Z,16
2017-10-09T05:44:29.423Z,16
2017-10-09T05:45:30.807Z,16
2017-10-09T05:46:31.690Z,22
2017-10-09T05:47:32.443Z,22
2017-10-09T05:48:33.244Z,28
2017-10-09T05:49:34.323Z,28
2017-10-09T05:50:35.052Z,33
2017-10-09T05:51:35.779Z,33
2017-10-09T05:52:36.527Z,39
2017-10-09T05:53:37.311Z,39
2017-10-09T05:54:38.145Z,45
2017-10-09T05:55:38.935Z,50
2017-10-09T05:56:39.667Z,50
2017-10-09T05:57:40.394Z,56
2017-10-09T05:58:41.202Z,56
2017-10-09T05:59:42.282Z,61
2017-10-09T06:00:43.083Z,61
2017-10-09T06:01:43.882Z,61
2017-10-09T06:02:44.621Z,61
2017-10-09T06:03:45.356Z,61
2017-10-09T06:04:46.491Z,67
2017-10-09T06:05:47.223Z,67
2017-10-09T06:06:47.959Z,67
2017-10-09T06:07:48.689Z,67
2017-10-09T06:08:49.493Z,67
2017-10-09T06:09:50.644Z,73
2017-10-09T06:10:51.377Z,73
2017-10-09T06:11:52.115Z,73
2017-10-09T06:12:52.917Z,78
2017-10-09T06:13:53.642Z,84
2017-10-09T06:14:54.775Z,84
2017-10-09T06:15:55.593Z,90
2017-10-09T06:16:56.383Z,90
2017-10-09T06:17:57.114Z,95
2017-10-09T06:18:57.922Z,95
2017-10-09T06:19:59.003Z,101
2017-10-09T06:20:59.755Z,101
2017-10-09T06:22:00.426Z,101
2017-10-09T06:23:01.163Z,101
2017-10-09T06:24:01.902Z,101
2017-10-09T06:25:03.034Z,101
2017-10-09T06:26:03.762Z,101
2017-10-09T06:27:04.503Z,106
2017-10-09T06:28:05.233Z,106
2017-10-09T06:29:05.975Z,118
2017-10-09T06:30:07.062Z,123
2017-10-09T06:31:07.806Z,123
2017-10-09T06:32:08.616Z,129
2017-10-09T06:33:09.383Z,135
2017-10-09T06:34:10.111Z,140
2017-10-09T06:35:11.643Z,157
2017-10-09T06:36:12.431Z,185
2017-10-09T06:37:13.168Z,196
2017-10-09T06:38:13.896Z,196
2017-10-09T06:39:14.697Z,196
2017-10-09T06:40:15.482Z,196
2017-10-09T06:41:16.514Z,219
2017-10-09T06:42:17.243Z,225
2017-10-09T06:43:17.972Z,225
2017-10-09T06:44:18.703Z,185
2017-10-09T06:45:19.511Z,185
2017-10-09T06:46:20.601Z,208
2017-10-09T06:47:21.335Z,225
2017-10-09T06:48:22.111Z,247
2017-10-09T06:49:22.841Z,264
2017-10-09T06:50:23.572Z,286
2017-10-09T06:51:24.351Z,309
2017-10-09T06:52:25.085Z,320
2017-10-09T06:53:25.813Z,343
2017-10-09T06:54:26.781Z,371
2017-10-09T06:55:27.917Z,393
2017-10-09T06:56:30.197Z,416
2017-10-09T06:57:31.201Z,421
2017-10-09T06:58:31.949Z,410
2017-10-09T06:59:32.696Z,393
2017-10-09T07:00:33.476Z,376
2017-10-09T07:01:34.665Z,360
2017-10-09T07:02:35.395Z,354
2017-10-09T07:03:36.120Z,348
2017-10-09T07:04:36.848Z,343
2017-10-09T07:05:37.572Z,337
2017-10-09T07:06:38.356Z,337
2017-10-09T07:07:39.161Z,343
2017-10-09T07:08:39.942Z,354
2017-10-09T07:09:40.651Z,360
2017-10-09T07:10:41.413Z,365
2017-10-09T07:11:42.200Z,371
2017-10-09T07:12:42.930Z,365
2017-10-09T07:13:43.663Z,360
2017-10-09T07:14:44.394Z,348
2017-10-09T07:15:45.132Z,337
2017-10-09T07:16:46.222Z,326
2017-10-09T07:17:46.953Z,315
2017-10-09T07:18:47.705Z,320
2017-10-09T07:19:48.472Z,320
2017-10-09T07:20:49.258Z,326
2017-10-09T07:21:50.188Z,337
2017-10-09T07:22:50.926Z,354
2017-10-09T07:23:51.741Z,365
2017-10-09T07:24:52.531Z,382
2017-10-09T07:25:53.270Z,399
2017-10-09T07:26:54.354Z,421
2017-10-09T07:27:55.144Z,444
2017-10-09T07:28:55.891Z,472
2017-10-09T07:29:56.674Z,495
2017-10-09T07:30:57.479Z,523
2017-10-09T07:31:58.609Z,545
2017-10-09T07:32:59.345Z,551
2017-10-09T07:34:00.149Z,551
2017-10-09T07:35:01.914Z,540
2017-10-09T07:36:02.823Z,528
2017-10-09T07:37:03.723Z,517
2017-10-09T07:38:05.495Z,489
2017-10-09T07:39:07.657Z,466
2017-10-09T07:40:09.560Z,450
2017-10-09T07:41:10.731Z,433
2017-10-09T07:42:11.887Z,421
2017-10-09T07:43:12.684Z,410
2017-10-09T07:44:13.419Z,410
2017-10-09T07:45:14.155Z,416
2017-10-09T07:46:14.888Z,421
2017-10-09T07:47:17.298Z,433
2017-10-09T07:48:18.547Z,450
2017-10-09T07:49:20.588Z,466
2017-10-09T07:50:22.539Z,478
2017-10-09T07:51:24.548Z,489
2017-10-09T07:52:25.911Z,495
2017-10-09T07:53:26.770Z,495
2017-10-09T07:54:27.521Z,500
2017-10-09T07:55:28.287Z,500
2017-10-09T07:56:29.021Z,506
2017-10-09T07:57:30.228Z,511
2017-10-09T07:58:30.956Z,523
2017-10-09T07:59:31.698Z,534
2017-10-09T08:00:32.443Z,556
2017-10-09T08:01:33.244Z,562
2017-10-09T08:02:34.030Z,573
2017-10-09T08:03:34.768Z,590
2017-10-09T08:04:35.500Z,601
2017-10-09T08:05:36.228Z,596
2017-10-09T08:06:36.958Z,596
2017-10-09T08:07:38.048Z,596
2017-10-09T08:08:38.833Z,590
2017-10-09T08:09:39.648Z,573
2017-10-09T08:10:40.378Z,562
2017-10-09T08:11:41.108Z,556
2017-10-09T08:12:42.272Z,551
2017-10-09T08:13:43.077Z,534
2017-10-09T08:14:43.887Z,523
2017-10-09T08:15:44.624Z,534
2017-10-09T08:16:45.357Z,545
2017-10-09T08:17:46.910Z,613
2017-10-09T08:18:47.688Z,714
2017-10-09T08:19:48.479Z,742
2017-10-09T08:20:49.272Z,765
2017-10-09T08:21:50.067Z,793
2017-10-09T08:22:51.109Z,990
2017-10-09T08:23:51.909Z,939
2017-10-09T08:24:52.644Z,900
2017-10-09T08:25:53.392Z,838
2017-10-09T08:26:54.119Z,815
2017-10-09T08:27:55.248Z,781
2017-10-09T08:28:56.065Z,945
2017-10-09T08:29:56.845Z,1119
2017-10-09T08:30:57.574Z,950
2017-10-09T08:31:58.308Z,1046
2017-10-09T08:32:59.454Z,1226
2017-10-09T08:34:00.192Z,1344
2017-10-09T08:35:00.967Z,1743
2017-10-09T08:36:01.766Z,1321
2017-10-09T08:37:02.496Z,1203
2017-10-09T08:38:03.544Z,995
2017-10-09T08:39:04.336Z,888
2017-10-09T08:40:05.088Z,731
2017-10-09T08:41:05.892Z,838
2017-10-09T08:42:06.637Z,793
2017-10-09T08:43:07.469Z,860
2017-10-09T08:44:08.194Z,871
2017-10-09T08:45:08.926Z,905
2017-10-09T08:46:09.683Z,787
2017-10-09T08:47:10.487Z,950
2017-10-09T08:48:11.385Z,978
2017-10-09T08:49:12.118Z,1170
2017-10-09T08:50:12.850Z,1113
2017-10-09T08:51:13.594Z,1215
2017-10-09T08:52:14.375Z,1186
2017-10-09T08:53:15.462Z,1288
2017-10-09T08:54:16.297Z,1243
2017-10-09T08:55:17.035Z,916
2017-10-09T08:56:17.759Z,826
2017-10-09T08:57:18.485Z,922
2017-10-09T08:58:19.273Z,1203
2017-10-09T08:59:20.010Z,1158
2017-10-09T09:00:20.801Z,984
2017-10-09T09:01:21.536Z,1305
2017-10-09T09:02:22.273Z,1355
2017-10-09T09:03:23.445Z,1288
2017-10-09T09:04:24.220Z,1170
2017-10-09T09:05:24.996Z,1068
2017-10-09T09:06:25.731Z,815
2017-10-09T09:07:26.536Z,871
2017-10-09T09:08:27.657Z,945
2017-10-09T09:09:28.443Z,838
2017-10-09T09:10:29.176Z,894
2017-10-09T09:11:29.906Z,1102
2017-10-09T09:12:30.637Z,1198
2017-10-09T09:13:31.476Z,1113
2017-10-09T09:14:32.205Z,1158
2017-10-09T09:15:32.935Z,877
2017-10-09T09:16:33.665Z,826
2017-10-09T09:17:34.406Z,1012
2017-10-09T09:18:35.495Z,939
2017-10-09T09:19:36.225Z,1001
2017-10-09T09:20:36.954Z,1125
2017-10-09T09:21:37.676Z,1136
2017-10-09T09:22:38.419Z,995
2017-10-09T09:23:39.515Z,894
2017-10-09T09:24:40.255Z,1704
2017-10-09T09:25:40.989Z,1670
2017-10-09T09:26:41.740Z,1642
2017-10-09T09:27:42.527Z,1642
2017-10-09T09:28:43.398Z,1552
2017-10-09T09:29:44.218Z,1518
2017-10-09T09:30:45.024Z,1524
2017-10-09T09:31:45.825Z,1417
2017-10-09T09:32:46.558Z,1501
2017-10-09T09:33:47.650Z,1575
2017-10-09T09:34:48.441Z,1788
2017-10-09T09:35:49.235Z,2148
2017-10-09T09:36:49.975Z,1901
2017-10-09T09:37:50.707Z,2671
2017-10-09T09:38:51.742Z,1996
2017-10-09T09:39:52.545Z,2373
2017-10-09T09:40:53.283Z,2126
2017-10-09T09:41:54.072Z,2334
2017-10-09T09:42:54.816Z,2250
2017-10-09T09:43:56.256Z,2205
2017-10-09T09:44:56.998Z,2148
2017-10-09T09:45:57.799Z,2250
2017-10-09T09:46:58.580Z,2278
2017-10-09T09:47:59.385Z,2424
2017-10-09T09:49:00.499Z,2250
2017-10-09T09:50:01.300Z,1749
2017-10-09T09:51:02.036Z,1794
2017-10-09T09:52:02.796Z,1271
2017-10-09T09:53:03.546Z,1321
2017-10-09T09:54:04.633Z,1305
2017-10-09T09:55:05.378Z,1248
2017-10-09T09:56:06.177Z,1265
2017-10-09T09:57:06.917Z,1170
2017-10-09T09:58:07.649Z,1074
2017-10-09T09:59:08.689Z,1085
2017-10-09T10:00:09.489Z,1096
2017-10-09T10:01:10.297Z,1040
2017-10-09T10:02:11.039Z,973
2017-10-09T10:03:11.781Z,1029
2017-10-09T10:04:12.600Z,1119
2017-10-09T10:05:13.342Z,1417
2017-10-09T10:06:14.155Z,1018
2017-10-09T10:07:15.348Z,1603
2017-10-09T10:08:16.136Z,1473
2017-10-09T10:09:16.888Z,1310
2017-10-09T10:10:17.630Z,1378
2017-10-09T10:11:18.366Z,1383
2017-10-09T10:12:19.415Z,1198
2017-10-09T10:13:20.146Z,984
2017-10-09T10:14:20.908Z,961
2017-10-09T10:15:21.653Z,928
2017-10-09T10:16:22.458Z,916
2017-10-09T10:17:23.310Z,928
2017-10-09T10:18:24.112Z,1085
2017-10-09T10:19:24.912Z,888
2017-10-09T10:20:25.650Z,860
2017-10-09T10:21:26.387Z,945
2017-10-09T10:22:27.428Z,950
2017-10-09T10:23:28.167Z,961
2017-10-09T10:24:28.898Z,956
2017-10-09T10:25:29.630Z,1192
2017-10-09T10:26:30.450Z,1215
2017-10-09T10:27:31.583Z,1260
2017-10-09T10:28:32.324Z,1260
2017-10-09T10:29:33.108Z,1192
2017-10-09T10:30:33.850Z,1091
2017-10-09T10:31:34.588Z,1231
2017-10-09T10:32:35.360Z,1085
2017-10-09T10:33:36.170Z,950
2017-10-09T10:34:36.954Z,1091
2017-10-09T10:35:37.694Z,1068
2017-10-09T10:36:38.540Z,1080
2017-10-09T10:37:39.320Z,1119
2017-10-09T10:38:40.028Z,1057
2017-10-09T10:39:40.810Z,1018
2017-10-09T10:40:41.621Z,1018
2017-10-09T10:41:42.473Z,1029
2017-10-09T10:42:43.210Z,1136
2017-10-09T10:43:43.955Z,1265
2017-10-09T10:44:44.691Z,1496
2017-10-09T10:45:45.430Z,1136
2017-10-09T10:46:46.212Z,922
2017-10-09T10:47:46.941Z,950
2017-10-09T10:48:47.670Z,1299
2017-10-09T10:49:48.410Z,1170
2017-10-09T10:50:49.154Z,1293
2017-10-09T10:51:49.941Z,1344
2017-10-09T10:52:50.683Z,1350
2017-10-09T10:53:51.492Z,1265
2017-10-09T10:54:52.648Z,1271
2017-10-09T10:55:53.390Z,1316
2017-10-09T10:56:54.137Z,1248
2017-10-09T10:57:54.912Z,1215
2017-10-09T10:58:55.651Z,1203
2017-10-09T10:59:56.692Z,1136
2017-10-09T11:00:57.507Z,1063
2017-10-09T11:01:58.277Z,1074
2017-10-09T11:02:59.011Z,1141
2017-10-09T11:03:59.750Z,1254
2017-10-09T11:05:01.196Z,1333
2017-10-09T11:06:01.976Z,1361
2017-10-09T11:07:02.710Z,1333
2017-10-09T11:08:03.460Z,1282
2017-10-09T11:09:04.270Z,1248
2017-10-09T11:10:05.041Z,1192
2017-10-09T11:11:06.126Z,1119
2017-10-09T11:12:06.922Z,1046
2017-10-09T11:13:07.793Z,984
2017-10-09T11:14:08.573Z,945
2017-10-09T11:15:09.313Z,933
2017-10-09T11:16:10.501Z,894
2017-10-09T11:17:11.251Z,894
2017-10-09T11:18:12.032Z,922
2017-10-09T11:19:12.831Z,939
2017-10-09T11:20:13.574Z,961
2017-10-09T11:21:14.670Z,978
2017-10-09T11:22:15.415Z,984
2017-10-09T11:23:16.205Z,990
2017-10-09T11:24:16.950Z,990
2017-10-09T11:25:17.683Z,978
2017-10-09T11:26:18.810Z,995
2017-10-09T11:27:19.600Z,990
2017-10-09T11:28:20.352Z,978
2017-10-09T11:29:21.141Z,961
2017-10-09T11:30:21.881Z,967
2017-10-09T11:31:22.971Z,995
2017-10-09T11:32:23.712Z,1001
2017-10-09T11:33:24.451Z,1023
2017-10-09T11:34:25.194Z,1023
2017-10-09T11:35:25.980Z,1001
2017-10-09T11:36:26.729Z,945
2017-10-09T11:37:27.512Z,883
2017-10-09T11:38:28.259Z,821
2017-10-09T11:39:29.052Z,753
2017-10-09T11:40:29.878Z,714
2017-10-09T11:41:30.878Z,753
2017-10-09T11:42:31.673Z,888
2017-10-09T11:43:32.479Z,1192
2017-10-09T11:44:33.243Z,1170
2017-10-09T11:45:34.053Z,1248
2017-10-09T11:46:35.492Z,1130
2017-10-09T11:47:36.238Z,1170
2017-10-09T11:48:36.963Z,1237
2017-10-09T11:49:37.696Z,1203
2017-10-09T11:50:38.484Z,1153
2017-10-09T11:51:39.327Z,1147
2017-10-09T11:52:40.066Z,1102
2017-10-09T11:53:40.906Z,1068
2017-10-09T11:54:41.686Z,973
2017-10-09T11:55:42.475Z,950
2017-10-09T11:56:43.214Z,950
2017-10-09T11:57:44.040Z,1006
2017-10-09T11:58:44.778Z,1001
2017-10-09T11:59:45.584Z,956
2017-10-09T12:00:46.386Z,939
2017-10-09T12:01:47.523Z,916
2017-10-09T12:02:48.281Z,883
2017-10-09T12:03:49.092Z,860
2017-10-09T12:04:49.890Z,883
2017-10-09T12:05:50.633Z,916
2017-10-09T12:06:51.784Z,939
2017-10-09T12:07:52.520Z,939
2017-10-09T12:08:53.340Z,933
2017-10-09T12:09:54.071Z,945
2017-10-09T12:10:55.664Z,961
2017-10-09T12:11:58.551Z,984
2017-10-09T12:12:59.560Z,990
2017-10-09T12:14:00.293Z,995
2017-10-09T12:15:01.589Z,995
2017-10-09T12:16:02.293Z,978
2017-10-09T12:17:03.386Z,950
2017-10-09T12:18:04.122Z,950
2017-10-09T12:19:04.923Z,978
2017-10-09T12:20:05.698Z,1006
2017-10-09T12:21:07.588Z,995
2017-10-09T12:22:08.303Z,1023
2017-10-09T12:23:09.010Z,1023
2017-10-09T12:24:09.750Z,1029
2017-10-09T12:25:10.487Z,1018
2017-10-09T12:26:11.310Z,1012
2017-10-09T12:27:12.186Z,984
2017-10-09T12:28:12.920Z,922
2017-10-09T12:29:13.725Z,860
2017-10-09T12:30:14.531Z,922
2017-10-09T12:31:15.257Z,922
2017-10-09T12:32:16.001Z,928
2017-10-09T12:33:16.945Z,922
2017-10-09T12:34:18.028Z,922
2017-10-09T12:35:18.769Z,928
2017-10-09T12:36:19.581Z,905
2017-10-09T12:37:20.364Z,877
2017-10-09T12:38:21.095Z,860
2017-10-09T12:39:21.976Z,843
2017-10-09T12:40:22.834Z,838
2017-10-09T12:41:23.583Z,838
2017-10-09T12:42:24.357Z,838
2017-10-09T12:43:25.071Z,815
2017-10-09T12:44:26.159Z,793
2017-10-09T12:45:26.977Z,765
2017-10-09T12:46:27.718Z,770
2017-10-09T12:47:28.459Z,781
2017-10-09T12:48:29.478Z,793
2017-10-09T12:49:30.498Z,798
2017-10-09T12:50:31.238Z,804
2017-10-09T12:51:31.969Z,787
2017-10-09T12:52:32.706Z,765
2017-10-09T12:53:33.524Z,753
2017-10-09T12:54:34.693Z,736
2017-10-09T12:55:35.520Z,675
2017-10-09T12:56:36.328Z,590
2017-10-09T12:57:37.077Z,551
2017-10-09T12:58:38.820Z,551
2017-10-09T12:59:40.298Z,590
2017-10-09T13:00:41.030Z,646
2017-10-09T13:01:42.863Z,675
2017-10-09T13:02:43.888Z,675
2017-10-09T13:03:45.680Z,686
2017-10-09T13:04:47.237Z,652
2017-10-09T13:05:48.008Z,635
2017-10-09T13:06:48.752Z,669
2017-10-09T13:07:49.553Z,669
2017-10-09T13:08:50.378Z,624
2017-10-09T13:09:51.208Z,686
2017-10-09T13:10:51.984Z,759
2017-10-09T13:11:52.729Z,759
2017-10-09T13:12:53.530Z,748
2017-10-09T13:13:54.355Z,731
2017-10-09T13:14:55.140Z,731
2017-10-09T13:15:55.938Z,731
2017-10-09T13:16:57.077Z,697
2017-10-09T13:17:57.823Z,697
2017-10-09T13:18:58.610Z,652
2017-10-09T13:19:59.420Z,675
2017-10-09T13:21:00.226Z,658
2017-10-09T13:22:01.049Z,669
2017-10-09T13:23:02.435Z,675
2017-10-09T13:24:03.137Z,686
2017-10-09T13:25:03.918Z,669
2017-10-09T13:26:04.658Z,652
2017-10-09T13:27:05.837Z,680
2017-10-09T13:28:06.577Z,697
2017-10-09T13:29:07.392Z,691
2017-10-09T13:30:08.184Z,669
2017-10-09T13:31:08.916Z,658
2017-10-09T13:32:10.056Z,658
2017-10-09T13:33:10.788Z,658
2017-10-09T13:34:11.527Z,646
2017-10-09T13:35:12.276Z,624
2017-10-09T13:36:12.952Z,601
2017-10-09T13:37:13.798Z,573
2017-10-09T13:38:14.527Z,540
2017-10-09T13:39:15.269Z,500
2017-10-09T13:40:16.070Z,461
2017-10-09T13:41:16.866Z,444
2017-10-09T13:42:18.401Z,399
2017-10-09T13:43:19.138Z,331
2017-10-09T13:44:19.936Z,264
2017-10-09T13:45:20.657Z,241
2017-10-09T13:46:21.438Z,219
2017-10-09T13:47:22.540Z,236
2017-10-09T13:48:23.325Z,230
2017-10-09T13:49:24.133Z,230
2017-10-09T13:50:24.928Z,286
2017-10-09T13:51:25.669Z,315
2017-10-09T13:52:26.599Z,365
2017-10-09T13:53:27.342Z,371
2017-10-09T13:54:28.128Z,399
2017-10-09T13:55:28.947Z,416
2017-10-09T13:56:29.684Z,421
2017-10-09T13:57:30.812Z,399
2017-10-09T13:58:31.603Z,388
2017-10-09T13:59:32.347Z,405
2017-10-09T14:00:33.127Z,416
2017-10-09T14:01:33.864Z,433
2017-10-09T14:02:35.066Z,444
2017-10-09T14:03:35.908Z,444
2017-10-09T14:04:36.698Z,461
2017-10-09T14:05:37.431Z,466
2017-10-09T14:06:38.230Z,455
2017-10-09T14:07:39.387Z,444
2017-10-09T14:08:40.125Z,427
2017-10-09T14:09:40.873Z,421
2017-10-09T14:10:41.668Z,444
2017-10-09T14:11:42.417Z,450
2017-10-09T14:12:43.200Z,461
2017-10-09T14:13:43.940Z,466
2017-10-09T14:14:44.758Z,472
2017-10-09T14:15:45.497Z,489
2017-10-09T14:16:46.594Z,500
2017-10-09T14:17:47.384Z,495